sensor_id;sensor_type;location;lat;lon;timestamp;temperature;humidity
55203;DHT22;41077;52.956;6.796;2022-10-16T00:01:58;12.80;99.90
55203;DHT22;41077;52.956;6.796;2022-10-16T00:04:23;12.70;99.90
55203;DHT22;41077;52.956;6.796;2022-10-16T00:06:49;12.80;99.90
55203;DHT22;41077;52.956;6.796;2022-10-16T00:09:15;12.80;99.90
55203;DHT22;41077;52.956;6.796;2022-10-16T00:11:41;12.80;99.90
55203;DHT22;41077;52.956;6.796;2022-10-16T00:14:12;12.80;99.90
55203;DHT22;41077;52.956;6.796;2022-10-16T00:16:38;12.80;99.90
55203;DHT22;41077;52.956;6.796;2022-10-16T00:19:05;12.70;99.90
55203;DHT22;41077;52.956;6.796;2022-10-16T00:21:31;12.70;99.90
55203;DHT22;41077;52.956;6.796;2022-10-16T00:23:59;12.70;99.90
55203;DHT22;41077;52.956;6.796;2022-10-16T00:26:26;12.70;99.90
55203;DHT22;41077;52.956;6.796;2022-10-16T00:28:52;12.70;99.90
55203;DHT22;41077;52.956;6.796;2022-10-16T00:31:20;12.70;99.90
55203;DHT22;41077;52.956;6.796;2022-10-16T00:33:46;12.80;99.90
55203;DHT22;41077;52.956;6.796;2022-10-16T00:36:15;12.90;99.90
55203;DHT22;41077;52.956;6.796;2022-10-16T00:38:41;12.90;99.90
55203;DHT22;41077;52.956;6.796;2022-10-16T00:41:11;12.90;99.90
55203;DHT22;41077;52.956;6.796;2022-10-16T00:43:44;12.90;99.90
55203;DHT22;41077;52.956;6.796;2022-10-16T00:46:17;12.80;99.90
55203;DHT22;41077;52.956;6.796;2022-10-16T00:48:49;12.80;99.90
55203;DHT22;41077;52.956;6.796;2022-10-16T00:51:16;12.90;99.90
55203;DHT22;41077;52.956;6.796;2022-10-16T00:53:43;12.90;99.90
55203;DHT22;41077;52.956;6.796;2022-10-16T00:56:09;12.90;99.90
55203;DHT22;41077;52.956;6.796;2022-10-16T00:58:35;12.80;99.90
55203;DHT22;41077;52.956;6.796;2022-10-16T01:01:01;12.90;99.90
55203;DHT22;41077;52.956;6.796;2022-10-16T01:03:30;12.90;99.90
55203;DHT22;41077;52.956;6.796;2022-10-16T01:08:52;12.80;99.90
55203;DHT22;41077;52.956;6.796;2022-10-16T01:11:41;12.70;99.90
55203;DHT22;41077;52.956;6.796;2022-10-16T01:15:01;12.70;99.90
55203;DHT22;41077;52.956;6.796;2022-10-16T01:17:26;12.60;99.90
55203;DHT22;41077;52.956;6.796;2022-10-16T01:20:08;12.50;99.90
55203;DHT22;41077;52.956;6.796;2022-10-16T01:23:05;12.50;99.90
55203;DHT22;41077;52.956;6.796;2022-10-16T01:28:19;12.40;99.90
55203;DHT22;41077;52.956;6.796;2022-10-16T01:30:46;12.40;99.90
55203;DHT22;41077;52.956;6.796;2022-10-16T01:33:41;12.40;99.90
55203;DHT22;41077;52.956;6.796;2022-10-16T01:36:13;12.40;99.90
55203;DHT22;41077;52.956;6.796;2022-10-16T01:38:40;12.40;99.90
55203;DHT22;41077;52.956;6.796;2022-10-16T01:41:14;12.40;99.90
55203;DHT22;41077;52.956;6.796;2022-10-16T01:43:45;12.40;99.90
55203;DHT22;41077;52.956;6.796;2022-10-16T01:46:13;12.40;99.90
55203;DHT22;41077;52.956;6.796;2022-10-16T01:48:41;12.40;99.90
55203;DHT22;41077;52.956;6.796;2022-10-16T01:51:10;12.40;99.90
55203;DHT22;41077;52.956;6.796;2022-10-16T01:53:37;12.50;99.90
55203;DHT22;41077;52.956;6.796;2022-10-16T01:56:08;12.50;99.90
55203;DHT22;41077;52.956;6.796;2022-10-16T01:58:37;12.40;99.90
55203;DHT22;41077;52.956;6.796;2022-10-16T02:01:07;12.40;99.90
55203;DHT22;41077;52.956;6.796;2022-10-16T02:03:37;12.40;99.90
55203;DHT22;41077;52.956;6.796;2022-10-16T02:06:05;12.40;99.90
55203;DHT22;41077;52.956;6.796;2022-10-16T02:08:31;12.40;99.90
55203;DHT22;41077;52.956;6.796;2022-10-16T02:10:58;12.40;99.90
55203;DHT22;41077;52.956;6.796;2022-10-16T02:13:34;12.40;99.90
55203;DHT22;41077;52.956;6.796;2022-10-16T02:16:01;12.40;99.90
55203;DHT22;41077;52.956;6.796;2022-10-16T02:18:27;12.40;99.90
55203;DHT22;41077;52.956;6.796;2022-10-16T02:21:04;12.40;99.90
55203;DHT22;41077;52.956;6.796;2022-10-16T02:23:45;12.40;99.90
55203;DHT22;41077;52.956;6.796;2022-10-16T02:26:15;12.40;99.90
55203;DHT22;41077;52.956;6.796;2022-10-16T02:28:47;12.40;99.90
55203;DHT22;41077;52.956;6.796;2022-10-16T02:31:19;12.40;99.90
55203;DHT22;41077;52.956;6.796;2022-10-16T02:33:48;12.40;99.90
55203;DHT22;41077;52.956;6.796;2022-10-16T02:36:15;12.50;99.90
55203;DHT22;41077;52.956;6.796;2022-10-16T02:38:41;12.50;99.90
55203;DHT22;41077;52.956;6.796;2022-10-16T02:41:07;12.60;99.90
55203;DHT22;41077;52.956;6.796;2022-10-16T02:43:33;12.60;99.90
55203;DHT22;41077;52.956;6.796;2022-10-16T02:45:59;12.60;99.90
55203;DHT22;41077;52.956;6.796;2022-10-16T02:48:25;12.70;99.90
55203;DHT22;41077;52.956;6.796;2022-10-16T02:50:51;12.70;99.90
55203;DHT22;41077;52.956;6.796;2022-10-16T02:53:16;12.70;99.90
55203;DHT22;41077;52.956;6.796;2022-10-16T02:55:42;12.70;99.90
55203;DHT22;41077;52.956;6.796;2022-10-16T02:58:08;12.80;99.90
55203;DHT22;41077;52.956;6.796;2022-10-16T03:00:33;12.80;99.90
55203;DHT22;41077;52.956;6.796;2022-10-16T03:02:59;12.80;99.90
55203;DHT22;41077;52.956;6.796;2022-10-16T03:05:25;12.80;99.90
55203;DHT22;41077;52.956;6.796;2022-10-16T03:07:50;12.80;99.90
55203;DHT22;41077;52.956;6.796;2022-10-16T03:10:18;12.80;99.90
55203;DHT22;41077;52.956;6.796;2022-10-16T03:12:43;12.90;99.90
55203;DHT22;41077;52.956;6.796;2022-10-16T03:15:09;12.90;99.90
55203;DHT22;41077;52.956;6.796;2022-10-16T03:17:35;12.90;99.90
55203;DHT22;41077;52.956;6.796;2022-10-16T03:20:01;12.90;99.90
55203;DHT22;41077;52.956;6.796;2022-10-16T03:22:26;12.90;99.90
55203;DHT22;41077;52.956;6.796;2022-10-16T03:24:52;12.90;99.90
55203;DHT22;41077;52.956;6.796;2022-10-16T03:27:18;12.90;99.90
55203;DHT22;41077;52.956;6.796;2022-10-16T03:29:43;12.90;99.90
55203;DHT22;41077;52.956;6.796;2022-10-16T03:32:09;12.90;99.90
55203;DHT22;41077;52.956;6.796;2022-10-16T03:34:35;13.00;99.90
55203;DHT22;41077;52.956;6.796;2022-10-16T03:37:00;12.90;99.90
55203;DHT22;41077;52.956;6.796;2022-10-16T03:39:26;13.00;99.90
55203;DHT22;41077;52.956;6.796;2022-10-16T03:41:52;13.00;99.90
55203;DHT22;41077;52.956;6.796;2022-10-16T03:44:18;13.00;99.90
55203;DHT22;41077;52.956;6.796;2022-10-16T03:46:43;13.00;99.90
55203;DHT22;41077;52.956;6.796;2022-10-16T03:49:09;13.00;99.90
55203;DHT22;41077;52.956;6.796;2022-10-16T03:51:34;13.00;99.90
55203;DHT22;41077;52.956;6.796;2022-10-16T03:54:00;13.00;99.90
55203;DHT22;41077;52.956;6.796;2022-10-16T03:56:26;13.00;99.90
55203;DHT22;41077;52.956;6.796;2022-10-16T03:58:52;13.00;99.90
55203;DHT22;41077;52.956;6.796;2022-10-16T04:01:17;13.00;99.90
55203;DHT22;41077;52.956;6.796;2022-10-16T04:03:43;13.00;99.90
55203;DHT22;41077;52.956;6.796;2022-10-16T04:06:09;13.00;99.90
55203;DHT22;41077;52.956;6.796;2022-10-16T04:08:34;13.00;99.90
55203;DHT22;41077;52.956;6.796;2022-10-16T04:11:02;13.00;99.90
55203;DHT22;41077;52.956;6.796;2022-10-16T04:13:28;12.90;99.90
55203;DHT22;41077;52.956;6.796;2022-10-16T04:15:53;13.00;99.90
55203;DHT22;41077;52.956;6.796;2022-10-16T04:18:19;13.00;99.90
55203;DHT22;41077;52.956;6.796;2022-10-16T04:20:45;13.00;99.90
55203;DHT22;41077;52.956;6.796;2022-10-16T04:23:10;13.00;99.90
55203;DHT22;41077;52.956;6.796;2022-10-16T04:25:36;13.00;99.90
55203;DHT22;41077;52.956;6.796;2022-10-16T04:28:02;12.90;99.90
55203;DHT22;41077;52.956;6.796;2022-10-16T04:30:27;13.00;99.90
55203;DHT22;41077;52.956;6.796;2022-10-16T04:32:53;13.00;99.90
55203;DHT22;41077;52.956;6.796;2022-10-16T04:35:20;12.90;99.90
55203;DHT22;41077;52.956;6.796;2022-10-16T04:37:46;12.90;99.90
55203;DHT22;41077;52.956;6.796;2022-10-16T04:40:12;12.90;99.90
55203;DHT22;41077;52.956;6.796;2022-10-16T04:42:38;12.90;99.90
55203;DHT22;41077;52.956;6.796;2022-10-16T04:45:05;12.90;99.90
55203;DHT22;41077;52.956;6.796;2022-10-16T04:47:30;12.90;99.90
55203;DHT22;41077;52.956;6.796;2022-10-16T04:49:56;12.90;99.90
55203;DHT22;41077;52.956;6.796;2022-10-16T04:52:22;12.90;99.90
55203;DHT22;41077;52.956;6.796;2022-10-16T04:54:50;12.90;99.90
55203;DHT22;41077;52.956;6.796;2022-10-16T04:57:16;12.80;99.90
55203;DHT22;41077;52.956;6.796;2022-10-16T04:59:42;12.90;99.90
55203;DHT22;41077;52.956;6.796;2022-10-16T05:02:08;12.90;99.90
55203;DHT22;41077;52.956;6.796;2022-10-16T05:04:34;12.90;99.90
55203;DHT22;41077;52.956;6.796;2022-10-16T05:06:59;12.90;99.90
55203;DHT22;41077;52.956;6.796;2022-10-16T05:09:25;12.90;99.90
55203;DHT22;41077;52.956;6.796;2022-10-16T05:11:51;13.00;99.90
55203;DHT22;41077;52.956;6.796;2022-10-16T05:14:16;12.90;99.90
55203;DHT22;41077;52.956;6.796;2022-10-16T05:16:42;13.00;99.90
55203;DHT22;41077;52.956;6.796;2022-10-16T05:19:08;13.10;99.90
55203;DHT22;41077;52.956;6.796;2022-10-16T05:21:33;13.10;99.90
55203;DHT22;41077;52.956;6.796;2022-10-16T05:23:59;13.10;99.90
55203;DHT22;41077;52.956;6.796;2022-10-16T05:26:25;13.10;99.90
55203;DHT22;41077;52.956;6.796;2022-10-16T05:28:50;13.10;99.90
55203;DHT22;41077;52.956;6.796;2022-10-16T05:31:16;13.10;99.90
55203;DHT22;41077;52.956;6.796;2022-10-16T05:33:42;13.10;99.90
55203;DHT22;41077;52.956;6.796;2022-10-16T05:36:10;13.10;99.90
55203;DHT22;41077;52.956;6.796;2022-10-16T05:38:37;13.10;99.90
55203;DHT22;41077;52.956;6.796;2022-10-16T05:41:04;13.10;99.90
55203;DHT22;41077;52.956;6.796;2022-10-16T05:43:31;13.10;99.90
55203;DHT22;41077;52.956;6.796;2022-10-16T05:45:58;13.10;99.90
55203;DHT22;41077;52.956;6.796;2022-10-16T05:48:24;13.10;99.90
55203;DHT22;41077;52.956;6.796;2022-10-16T05:51:03;13.10;99.90
55203;DHT22;41077;52.956;6.796;2022-10-16T05:53:30;13.10;99.90
55203;DHT22;41077;52.956;6.796;2022-10-16T05:55:57;13.20;99.90
55203;DHT22;41077;52.956;6.796;2022-10-16T05:58:24;13.10;99.90
55203;DHT22;41077;52.956;6.796;2022-10-16T06:00:59;13.10;99.90
55203;DHT22;41077;52.956;6.796;2022-10-16T06:03:25;13.10;99.90
55203;DHT22;41077;52.956;6.796;2022-10-16T06:05:51;13.10;99.90
55203;DHT22;41077;52.956;6.796;2022-10-16T06:08:18;13.10;99.90
55203;DHT22;41077;52.956;6.796;2022-10-16T06:10:45;13.10;99.90
55203;DHT22;41077;52.956;6.796;2022-10-16T06:13:11;13.00;99.90
55203;DHT22;41077;52.956;6.796;2022-10-16T06:15:38;13.00;99.90
55203;DHT22;41077;52.956;6.796;2022-10-16T06:18:05;13.00;99.90
55203;DHT22;41077;52.956;6.796;2022-10-16T06:20:31;13.00;99.90
55203;DHT22;41077;52.956;6.796;2022-10-16T06:22:57;13.10;99.90
55203;DHT22;41077;52.956;6.796;2022-10-16T06:25:22;13.10;99.90
55203;DHT22;41077;52.956;6.796;2022-10-16T06:27:48;13.10;99.90
55203;DHT22;41077;52.956;6.796;2022-10-16T06:30:14;13.10;99.90
55203;DHT22;41077;52.956;6.796;2022-10-16T06:32:39;13.10;99.90
55203;DHT22;41077;52.956;6.796;2022-10-16T06:35:05;13.10;99.90
55203;DHT22;41077;52.956;6.796;2022-10-16T06:37:31;13.10;99.90
55203;DHT22;41077;52.956;6.796;2022-10-16T06:39:56;13.00;99.90
55203;DHT22;41077;52.956;6.796;2022-10-16T06:42:22;13.10;99.90
55203;DHT22;41077;52.956;6.796;2022-10-16T06:44:48;13.10;99.90
55203;DHT22;41077;52.956;6.796;2022-10-16T06:47:13;13.10;99.90
55203;DHT22;41077;52.956;6.796;2022-10-16T06:49:39;13.10;99.90
55203;DHT22;41077;52.956;6.796;2022-10-16T06:52:05;13.10;99.90
55203;DHT22;41077;52.956;6.796;2022-10-16T06:54:30;13.10;99.90
55203;DHT22;41077;52.956;6.796;2022-10-16T06:56:56;13.10;99.90
55203;DHT22;41077;52.956;6.796;2022-10-16T06:59:22;13.20;99.90
55203;DHT22;41077;52.956;6.796;2022-10-16T07:01:48;13.20;99.90
55203;DHT22;41077;52.956;6.796;2022-10-16T07:04:14;13.20;99.90
55203;DHT22;41077;52.956;6.796;2022-10-16T07:06:39;13.20;99.90
55203;DHT22;41077;52.956;6.796;2022-10-16T07:09:07;13.20;99.90
55203;DHT22;41077;52.956;6.796;2022-10-16T07:11:34;13.20;99.90
55203;DHT22;41077;52.956;6.796;2022-10-16T07:14:00;13.30;99.90
55203;DHT22;41077;52.956;6.796;2022-10-16T07:16:29;13.30;99.90
55203;DHT22;41077;52.956;6.796;2022-10-16T07:18:59;13.20;99.90
55203;DHT22;41077;52.956;6.796;2022-10-16T07:21:31;13.20;99.90
55203;DHT22;41077;52.956;6.796;2022-10-16T07:24:00;13.20;99.90
55203;DHT22;41077;52.956;6.796;2022-10-16T07:26:27;13.30;99.90
55203;DHT22;41077;52.956;6.796;2022-10-16T07:28:53;13.30;99.90
55203;DHT22;41077;52.956;6.796;2022-10-16T07:31:20;13.30;99.90
55203;DHT22;41077;52.956;6.796;2022-10-16T07:33:47;13.20;99.90
55203;DHT22;41077;52.956;6.796;2022-10-16T07:36:15;13.40;99.90
55203;DHT22;41077;52.956;6.796;2022-10-16T07:38:41;13.40;99.90
55203;DHT22;41077;52.956;6.796;2022-10-16T07:41:13;13.40;99.90
55203;DHT22;41077;52.956;6.796;2022-10-16T07:43:39;13.40;99.90
55203;DHT22;41077;52.956;6.796;2022-10-16T07:46:05;13.50;99.90
55203;DHT22;41077;52.956;6.796;2022-10-16T07:48:32;13.50;99.90
55203;DHT22;41077;52.956;6.796;2022-10-16T07:50:59;13.50;99.90
55203;DHT22;41077;52.956;6.796;2022-10-16T07:53:26;13.60;99.90
55203;DHT22;41077;52.956;6.796;2022-10-16T07:55:56;13.60;99.90
55203;DHT22;41077;52.956;6.796;2022-10-16T07:58:22;13.60;99.90
55203;DHT22;41077;52.956;6.796;2022-10-16T08:00:48;13.60;99.90
55203;DHT22;41077;52.956;6.796;2022-10-16T08:03:14;13.70;99.90
55203;DHT22;41077;52.956;6.796;2022-10-16T08:05:39;13.70;99.90
55203;DHT22;41077;52.956;6.796;2022-10-16T08:08:05;13.70;99.90
55203;DHT22;41077;52.956;6.796;2022-10-16T08:10:31;13.70;99.90
55203;DHT22;41077;52.956;6.796;2022-10-16T08:12:57;13.90;99.90
55203;DHT22;41077;52.956;6.796;2022-10-16T08:15:24;14.00;99.90
55203;DHT22;41077;52.956;6.796;2022-10-16T08:18:01;14.00;99.90
55203;DHT22;41077;52.956;6.796;2022-10-16T08:20:27;14.00;99.90
55203;DHT22;41077;52.956;6.796;2022-10-16T08:22:54;14.00;99.90
55203;DHT22;41077;52.956;6.796;2022-10-16T08:25:21;14.00;99.90
55203;DHT22;41077;52.956;6.796;2022-10-16T08:27:47;14.00;99.90
55203;DHT22;41077;52.956;6.796;2022-10-16T08:30:14;14.10;99.90
55203;DHT22;41077;52.956;6.796;2022-10-16T08:32:40;14.10;99.90
55203;DHT22;41077;52.956;6.796;2022-10-16T08:35:10;14.20;99.90
55203;DHT22;41077;52.956;6.796;2022-10-16T08:37:36;14.20;99.90
55203;DHT22;41077;52.956;6.796;2022-10-16T08:40:03;14.20;99.90
55203;DHT22;41077;52.956;6.796;2022-10-16T08:50:31;14.40;99.90
55203;DHT22;41077;52.956;6.796;2022-10-16T08:52:59;14.50;99.90
55203;DHT22;41077;52.956;6.796;2022-10-16T08:55:46;14.60;99.90
55203;DHT22;41077;52.956;6.796;2022-10-16T08:58:16;14.70;99.90
55203;DHT22;41077;52.956;6.796;2022-10-16T09:00:43;14.70;99.90
55203;DHT22;41077;52.956;6.796;2022-10-16T09:03:17;14.80;99.90
55203;DHT22;41077;52.956;6.796;2022-10-16T09:06:35;14.80;99.90
55203;DHT22;41077;52.956;6.796;2022-10-16T09:23:10;15.10;99.90
55203;DHT22;41077;52.956;6.796;2022-10-16T09:25:39;15.10;99.90
55203;DHT22;41077;52.956;6.796;2022-10-16T09:28:08;15.20;99.90
55203;DHT22;41077;52.956;6.796;2022-10-16T09:30:34;15.20;99.90
55203;DHT22;41077;52.956;6.796;2022-10-16T09:33:00;15.30;99.90
55203;DHT22;41077;52.956;6.796;2022-10-16T09:35:37;15.30;99.90
55203;DHT22;41077;52.956;6.796;2022-10-16T09:38:04;15.40;99.90
55203;DHT22;41077;52.956;6.796;2022-10-16T09:40:38;15.50;99.90
55203;DHT22;41077;52.956;6.796;2022-10-16T09:43:20;15.40;99.90
55203;DHT22;41077;52.956;6.796;2022-10-16T09:46:04;15.50;99.90
55203;DHT22;41077;52.956;6.796;2022-10-16T09:48:43;15.60;99.90
55203;DHT22;41077;52.956;6.796;2022-10-16T09:51:21;15.60;99.90
55203;DHT22;41077;52.956;6.796;2022-10-16T09:53:48;15.60;99.90
55203;DHT22;41077;52.956;6.796;2022-10-16T09:56:32;15.60;99.90
55203;DHT22;41077;52.956;6.796;2022-10-16T09:59:00;15.60;99.90
55203;DHT22;41077;52.956;6.796;2022-10-16T10:04:06;15.90;99.90
55203;DHT22;41077;52.956;6.796;2022-10-16T10:06:37;15.90;99.90
55203;DHT22;41077;52.956;6.796;2022-10-16T10:09:31;16.00;99.90
55203;DHT22;41077;52.956;6.796;2022-10-16T10:11:59;16.10;99.90
55203;DHT22;41077;52.956;6.796;2022-10-16T10:14:34;16.10;99.90
55203;DHT22;41077;52.956;6.796;2022-10-16T10:19:36;16.30;99.90
55203;DHT22;41077;52.956;6.796;2022-10-16T10:22:17;16.30;99.90
55203;DHT22;41077;52.956;6.796;2022-10-16T10:24:45;16.30;99.90
55203;DHT22;41077;52.956;6.796;2022-10-16T10:27:19;16.30;99.90
55203;DHT22;41077;52.956;6.796;2022-10-16T10:35:56;16.40;99.90
55203;DHT22;41077;52.956;6.796;2022-10-16T10:38:27;16.40;99.90
55203;DHT22;41077;52.956;6.796;2022-10-16T10:44:03;16.30;99.90
55203;DHT22;41077;52.956;6.796;2022-10-16T10:46:41;16.30;99.90
55203;DHT22;41077;52.956;6.796;2022-10-16T10:52:33;16.50;99.90
55203;DHT22;41077;52.956;6.796;2022-10-16T10:58:10;16.50;99.90
55203;DHT22;41077;52.956;6.796;2022-10-16T11:06:40;16.40;99.90
55203;DHT22;41077;52.956;6.796;2022-10-16T11:09:43;16.40;99.90
55203;DHT22;41077;52.956;6.796;2022-10-16T11:12:27;16.30;99.90
55203;DHT22;41077;52.956;6.796;2022-10-16T11:17:30;16.40;99.90
55203;DHT22;41077;52.956;6.796;2022-10-16T11:20:05;16.50;99.90
55203;DHT22;41077;52.956;6.796;2022-10-16T11:22:39;16.70;99.90
55203;DHT22;41077;52.956;6.796;2022-10-16T11:25:24;16.70;99.90
55203;DHT22;41077;52.956;6.796;2022-10-16T11:28:07;16.60;99.90
55203;DHT22;41077;52.956;6.796;2022-10-16T11:30:49;16.80;99.90
55203;DHT22;41077;52.956;6.796;2022-10-16T11:33:32;16.70;99.90
55203;DHT22;41077;52.956;6.796;2022-10-16T11:36:10;16.80;99.90
55203;DHT22;41077;52.956;6.796;2022-10-16T11:44:20;16.60;99.90
55203;DHT22;41077;52.956;6.796;2022-10-16T11:49:26;16.60;99.90
55203;DHT22;41077;52.956;6.796;2022-10-16T11:57:53;16.50;99.90
55203;DHT22;41077;52.956;6.796;2022-10-16T12:08:35;16.20;99.90
55203;DHT22;41077;52.956;6.796;2022-10-16T12:13:46;16.50;99.90
55203;DHT22;41077;52.956;6.796;2022-10-16T12:18:46;16.70;99.90
55203;DHT22;41077;52.956;6.796;2022-10-16T12:21:13;16.80;99.90
55203;DHT22;41077;52.956;6.796;2022-10-16T12:23:52;16.90;99.90
55203;DHT22;41077;52.956;6.796;2022-10-16T12:26:26;16.90;99.90
55203;DHT22;41077;52.956;6.796;2022-10-16T12:28:54;16.90;99.90
55203;DHT22;41077;52.956;6.796;2022-10-16T12:31:20;16.80;99.90
55203;DHT22;41077;52.956;6.796;2022-10-16T12:34:02;16.80;99.90
55203;DHT22;41077;52.956;6.796;2022-10-16T12:36:33;16.70;99.90
55203;DHT22;41077;52.956;6.796;2022-10-16T12:39:00;16.60;99.90
55203;DHT22;41077;52.956;6.796;2022-10-16T12:41:32;16.40;99.90
55203;DHT22;41077;52.956;6.796;2022-10-16T12:43:58;16.30;99.90
55203;DHT22;41077;52.956;6.796;2022-10-16T12:57:03;16.30;99.90
55203;DHT22;41077;52.956;6.796;2022-10-16T12:59:57;16.30;99.90
55203;DHT22;41077;52.956;6.796;2022-10-16T13:10:37;16.30;99.90
55203;DHT22;41077;52.956;6.796;2022-10-16T13:18:45;16.50;99.90
55203;DHT22;41077;52.956;6.796;2022-10-16T13:21:33;16.50;99.90
55203;DHT22;41077;52.956;6.796;2022-10-16T13:29:36;16.60;99.90
55203;DHT22;41077;52.956;6.796;2022-10-16T13:32:07;16.50;99.90
55203;DHT22;41077;52.956;6.796;2022-10-16T13:34:44;16.60;99.90
55203;DHT22;41077;52.956;6.796;2022-10-16T13:37:19;16.80;99.90
55203;DHT22;41077;52.956;6.796;2022-10-16T13:39:45;17.00;99.90
55203;DHT22;41077;52.956;6.796;2022-10-16T13:42:21;17.20;99.90
55203;DHT22;41077;52.956;6.796;2022-10-16T13:44:53;17.20;99.90
55203;DHT22;41077;52.956;6.796;2022-10-16T13:47:24;17.20;99.90
55203;DHT22;41077;52.956;6.796;2022-10-16T13:50:11;17.20;99.90
55203;DHT22;41077;52.956;6.796;2022-10-16T13:52:37;17.30;99.90
55203;DHT22;41077;52.956;6.796;2022-10-16T13:55:09;17.40;99.90
55203;DHT22;41077;52.956;6.796;2022-10-16T13:57:35;17.50;99.90
55203;DHT22;41077;52.956;6.796;2022-10-16T14:00:01;17.70;99.90
55203;DHT22;41077;52.956;6.796;2022-10-16T14:02:31;17.80;99.90
55203;DHT22;41077;52.956;6.796;2022-10-16T14:05:01;17.80;99.90
55203;DHT22;41077;52.956;6.796;2022-10-16T14:07:32;17.50;99.90
55203;DHT22;41077;52.956;6.796;2022-10-16T14:10:04;17.50;99.90
55203;DHT22;41077;52.956;6.796;2022-10-16T14:12:30;17.30;99.90
55203;DHT22;41077;52.956;6.796;2022-10-16T14:14:57;17.10;99.90
55203;DHT22;41077;52.956;6.796;2022-10-16T14:17:32;17.10;99.90
55203;DHT22;41077;52.956;6.796;2022-10-16T14:20:03;17.00;99.90
55203;DHT22;41077;52.956;6.796;2022-10-16T14:22:40;16.90;99.90
55203;DHT22;41077;52.956;6.796;2022-10-16T14:25:23;16.80;99.90
55203;DHT22;41077;52.956;6.796;2022-10-16T14:28:16;16.70;99.90
55203;DHT22;41077;52.956;6.796;2022-10-16T14:30:57;16.60;99.90
55203;DHT22;41077;52.956;6.796;2022-10-16T14:36:21;16.50;99.90
55203;DHT22;41077;52.956;6.796;2022-10-16T14:39:02;16.50;99.90
55203;DHT22;41077;52.956;6.796;2022-10-16T14:41:30;16.40;99.90
55203;DHT22;41077;52.956;6.796;2022-10-16T14:44:02;16.40;99.90
55203;DHT22;41077;52.956;6.796;2022-10-16T14:46:34;16.40;99.90
55203;DHT22;41077;52.956;6.796;2022-10-16T14:51:36;16.40;99.90
55203;DHT22;41077;52.956;6.796;2022-10-16T14:54:03;16.50;99.90
55203;DHT22;41077;52.956;6.796;2022-10-16T14:56:52;16.60;99.90
55203;DHT22;41077;52.956;6.796;2022-10-16T14:59:39;16.70;99.90
55203;DHT22;41077;52.956;6.796;2022-10-16T15:02:34;16.80;99.90
55203;DHT22;41077;52.956;6.796;2022-10-16T15:07:36;16.90;99.90
55203;DHT22;41077;52.956;6.796;2022-10-16T15:10:02;16.90;99.90
55203;DHT22;41077;52.956;6.796;2022-10-16T15:12:28;16.90;99.90
55203;DHT22;41077;52.956;6.796;2022-10-16T15:14:53;16.90;99.90
55203;DHT22;41077;52.956;6.796;2022-10-16T15:17:19;16.80;99.90
55203;DHT22;41077;52.956;6.796;2022-10-16T15:19:45;16.80;99.90
55203;DHT22;41077;52.956;6.796;2022-10-16T15:22:11;16.70;99.90
55203;DHT22;41077;52.956;6.796;2022-10-16T15:24:37;16.60;99.90
55203;DHT22;41077;52.956;6.796;2022-10-16T15:27:03;16.50;99.90
55203;DHT22;41077;52.956;6.796;2022-10-16T15:29:29;16.40;99.90
55203;DHT22;41077;52.956;6.796;2022-10-16T15:31:54;16.30;99.90
55203;DHT22;41077;52.956;6.796;2022-10-16T15:34:20;16.20;99.90
55203;DHT22;41077;52.956;6.796;2022-10-16T15:36:45;16.10;99.90
55203;DHT22;41077;52.956;6.796;2022-10-16T15:39:16;16.00;99.90
55203;DHT22;41077;52.956;6.796;2022-10-16T15:41:44;15.90;99.90
55203;DHT22;41077;52.956;6.796;2022-10-16T15:44:10;15.80;99.90
55203;DHT22;41077;52.956;6.796;2022-10-16T15:46:35;15.70;99.90
55203;DHT22;41077;52.956;6.796;2022-10-16T15:49:03;15.60;99.90
55203;DHT22;41077;52.956;6.796;2022-10-16T15:51:29;15.60;99.90
55203;DHT22;41077;52.956;6.796;2022-10-16T15:53:58;15.50;99.90
55203;DHT22;41077;52.956;6.796;2022-10-16T15:56:27;15.40;99.90
55203;DHT22;41077;52.956;6.796;2022-10-16T15:58:54;15.30;99.90
55203;DHT22;41077;52.956;6.796;2022-10-16T16:01:20;15.20;99.90
55203;DHT22;41077;52.956;6.796;2022-10-16T16:03:47;15.20;99.90
55203;DHT22;41077;52.956;6.796;2022-10-16T16:06:13;15.10;99.90
55203;DHT22;41077;52.956;6.796;2022-10-16T16:08:39;15.00;99.90
55203;DHT22;41077;52.956;6.796;2022-10-16T16:11:11;14.90;99.90
55203;DHT22;41077;52.956;6.796;2022-10-16T16:13:37;14.90;99.90
55203;DHT22;41077;52.956;6.796;2022-10-16T16:16:08;14.80;99.90
55203;DHT22;41077;52.956;6.796;2022-10-16T16:18:34;14.80;99.90
55203;DHT22;41077;52.956;6.796;2022-10-16T16:21:00;14.70;99.90
55203;DHT22;41077;52.956;6.796;2022-10-16T16:23:26;14.70;99.90
55203;DHT22;41077;52.956;6.796;2022-10-16T16:28:29;14.50;99.90
55203;DHT22;41077;52.956;6.796;2022-10-16T16:30:55;14.50;99.90
55203;DHT22;41077;52.956;6.796;2022-10-16T16:33:21;14.40;99.90
55203;DHT22;41077;52.956;6.796;2022-10-16T16:35:47;14.40;99.90
55203;DHT22;41077;52.956;6.796;2022-10-16T16:38:12;14.30;99.90
55203;DHT22;41077;52.956;6.796;2022-10-16T16:40:38;14.20;99.90
55203;DHT22;41077;52.956;6.796;2022-10-16T16:43:04;14.20;99.90
55203;DHT22;41077;52.956;6.796;2022-10-16T16:45:29;14.10;99.90
55203;DHT22;41077;52.956;6.796;2022-10-16T16:47:55;14.00;99.90
55203;DHT22;41077;52.956;6.796;2022-10-16T16:50:21;14.00;99.90
55203;DHT22;41077;52.956;6.796;2022-10-16T16:52:46;13.90;99.90
55203;DHT22;41077;52.956;6.796;2022-10-16T16:55:12;13.90;99.90
55203;DHT22;41077;52.956;6.796;2022-10-16T16:57:38;13.80;99.90
55203;DHT22;41077;52.956;6.796;2022-10-16T17:00:04;13.80;99.90
55203;DHT22;41077;52.956;6.796;2022-10-16T17:02:30;13.70;99.90
55203;DHT22;41077;52.956;6.796;2022-10-16T17:04:55;13.70;99.90
55203;DHT22;41077;52.956;6.796;2022-10-16T17:07:22;13.70;99.90
55203;DHT22;41077;52.956;6.796;2022-10-16T17:09:50;13.60;99.90
55203;DHT22;41077;52.956;6.796;2022-10-16T17:12:16;13.50;99.90
55203;DHT22;41077;52.956;6.796;2022-10-16T17:14:41;13.40;99.90
55203;DHT22;41077;52.956;6.796;2022-10-16T17:17:07;13.40;99.90
55203;DHT22;41077;52.956;6.796;2022-10-16T17:19:33;13.40;99.90
55203;DHT22;41077;52.956;6.796;2022-10-16T17:21:59;13.40;99.90
55203;DHT22;41077;52.956;6.796;2022-10-16T17:24:25;13.30;99.90
55203;DHT22;41077;52.956;6.796;2022-10-16T17:26:51;13.30;99.90
55203;DHT22;41077;52.956;6.796;2022-10-16T17:29:17;13.30;99.90
55203;DHT22;41077;52.956;6.796;2022-10-16T17:31:43;13.20;99.90
55203;DHT22;41077;52.956;6.796;2022-10-16T17:34:10;13.20;99.90
55203;DHT22;41077;52.956;6.796;2022-10-16T17:36:38;13.20;99.90
55203;DHT22;41077;52.956;6.796;2022-10-16T17:39:10;13.10;99.90
55203;DHT22;41077;52.956;6.796;2022-10-16T17:41:36;13.10;99.90
55203;DHT22;41077;52.956;6.796;2022-10-16T17:44:04;13.10;99.90
55203;DHT22;41077;52.956;6.796;2022-10-16T17:46:30;13.00;99.90
55203;DHT22;41077;52.956;6.796;2022-10-16T17:48:55;12.90;99.90